Time;durP1;ratioP1;P1;durP2;ratioP2;P2;SDS_P1;SDS_P2;PMS_P1;PMS_P2;Temp;Humidity;BMP_temperature;BMP_pressure;BME280_temperature;BME280_humidity;BME280_pressure;Samples;Min_cycle;Max_cycle;Signal;HPM_P1;HPM_P2
2023/03/24 00:00:14;;;;;;;2.53;2.33;;;;;;;;;;5065476;28;20293;-52
2023/03/24 00:02:41;;;;;;;2.77;2.40;;;;;;;;;;5058527;28;20717;-51
2023/03/24 00:05:10;;;;;;;2.77;2.47;;;;;;;;;;5064686;28;20923;-53
2023/03/24 00:07:38;;;;;;;4.93;2.47;;;;;;;;;;5065753;28;20258;-53
2023/03/24 00:10:07;;;;;;;2.40;2.20;;;;;;;;;;5061085;28;20704;-51
2023/03/24 00:12:37;;;;;;;3.73;3.00;;;;;;;;;;5069092;28;20394;-52
2023/03/24 00:15:04;;;;;;;2.90;2.70;;;;;;;;;;5065163;28;20716;-53
2023/03/24 00:17:30;;;;;;;3.13;2.50;;;;;;;;;;5060067;28;20648;-53
2023/03/24 00:19:56;;;;;;;2.47;2.27;;;;;;;;;;5064668;28;20243;-52
2023/03/24 00:22:27;;;;;;;3.60;3.30;;;;;;;;;;5065900;28;20288;-56
2023/03/24 00:24:53;;;;;;;3.10;2.80;;;;;;;;;;5063150;28;20314;-55
2023/03/24 00:27:20;;;;;;;2.40;2.20;;;;;;;;;;5065276;28;20317;-52
2023/03/24 00:29:46;;;;;;;2.80;2.50;;;;;;;;;;5060401;28;20258;-51
2023/03/24 00:32:12;;;;;;;4.37;2.87;;;;;;;;;;5070969;28;20338;-52
2023/03/24 00:34:42;;;;;;;4.20;2.00;;;;;;;;;;5064575;28;20728;-53
2023/03/24 00:37:08;;;;;;;2.47;2.20;;;;;;;;;;5060725;28;20242;-53
2023/03/24 00:39:36;;;;;;;2.63;2.33;;;;;;;;;;5064956;28;20674;-53
2023/03/24 00:42:03;;;;;;;2.77;2.40;;;;;;;;;;5057392;28;20231;-51
2023/03/24 00:44:29;;;;;;;5.93;3.28;;;;;;;;;;5059924;28;20230;-52
2023/03/24 00:46:56;;;;;;;4.35;2.20;;;;;;;;;;5064496;28;20309;-50
2023/03/24 00:49:40;;;;;;;2.83;2.63;;;;;;;;;;5063988;28;20258;-51
2023/03/24 00:52:08;;;;;;;3.67;2.37;;;;;;;;;;5060813;28;20242;-51
2023/03/24 00:54:36;;;;;;;2.47;2.27;;;;;;;;;;5061984;28;20305;-52
2023/03/24 00:57:03;;;;;;;2.80;2.40;;;;;;;;;;5063952;28;20230;-52
2023/03/24 00:59:30;;;;;;;2.60;2.40;;;;;;;;;;5063801;28;20223;-52
2023/03/24 01:01:56;;;;;;;4.80;2.80;;;;;;;;;;5062508;28;20235;-52
2023/03/24 01:04:25;;;;;;;3.33;2.33;;;;;;;;;;5062846;28;20223;-52
2023/03/24 01:06:53;;;;;;;2.90;2.43;;;;;;;;;;5064238;28;20231;-51
2023/03/24 01:09:20;;;;;;;3.27;2.37;;;;;;;;;;5065186;28;20231;-52
2023/03/24 01:11:48;;;;;;;3.70;2.47;;;;;;;;;;5061052;28;20235;-52
2023/03/24 01:14:15;;;;;;;2.47;2.27;;;;;;;;;;5063247;28;20235;-52
2023/03/24 01:16:41;;;;;;;2.67;2.47;;;;;;;;;;5063723;28;20223;-51
2023/03/24 01:19:09;;;;;;;2.70;2.00;;;;;;;;;;5065546;28;20317;-52
2023/03/24 01:21:35;;;;;;;2.83;2.10;;;;;;;;;;5066957;28;20235;-52
2023/03/24 01:24:03;;;;;;;2.42;2.05;;;;;;;;;;5068229;28;20318;-53
2023/03/24 01:26:30;;;;;;;1.80;1.70;;;;;;;;;;5064247;28;20234;-52
2023/03/24 01:28:58;;;;;;;2.10;2.00;;;;;;;;;;5058519;28;20256;-53
2023/03/24 01:31:24;;;;;;;2.80;2.13;;;;;;;;;;5056157;28;20259;-53
2023/03/24 01:33:51;;;;;;;3.38;2.53;;;;;;;;;;5060898;28;20256;-52
2023/03/24 01:36:17;;;;;;;2.53;2.20;;;;;;;;;;5066290;28;20833;-51
2023/03/24 01:38:44;;;;;;;3.13;2.20;;;;;;;;;;5057961;28;20266;-51
2023/03/24 01:41:10;;;;;;;2.20;1.98;;;;;;;;;;5063984;28;20322;-52
2023/03/24 01:43:37;;;;;;;2.60;2.40;;;;;;;;;;5066009;28;20227;-52
2023/03/24 01:46:12;;;;;;;2.77;2.57;;;;;;;;;;5065539;28;20251;-54
2023/03/24 01:48:41;;;;;;;2.57;2.37;;;;;;;;;;5065983;28;20296;-53
2023/03/24 01:51:09;;;;;;;2.57;2.37;;;;;;;;;;5063031;28;20280;-51
2023/03/24 01:53:38;;;;;;;3.67;2.20;;;;;;;;;;5064792;28;20932;-53
2023/03/24 01:56:05;;;;;;;2.43;2.23;;;;;;;;;;5078754;28;20386;-52
2023/03/24 01:58:33;;;;;;;2.70;2.40;;;;;;;;;;5084917;28;20250;-52
2023/03/24 02:00:59;;;;;;;2.77;2.30;;;;;;;;;;5085508;28;20725;-52
2023/03/24 02:03:29;;;;;;;2.50;2.30;;;;;;;;;;5072380;28;20313;-52
2023/03/24 02:05:57;;;;;;;2.53;2.33;;;;;;;;;;5068573;28;20627;-53
2023/03/24 02:08:26;;;;;;;3.13;2.17;;;;;;;;;;5063059;28;20844;-51
2023/03/24 02:10:54;;;;;;;3.17;2.53;;;;;;;;;;5085358;28;20262;-52
2023/03/24 02:13:22;;;;;;;2.20;2.00;;;;;;;;;;5088494;28;20230;-52
2023/03/24 02:15:52;;;;;;;2.33;2.10;;;;;;;;;;5072432;28;20239;-54
2023/03/24 02:18:24;;;;;;;2.47;2.27;;;;;;;;;;5068050;28;20565;-51
2023/03/24 02:21:16;;;;;;;2.20;2.10;;;;;;;;;;5067120;28;20701;-54
2023/03/24 02:23:57;;;;;;;2.97;2.63;;;;;;;;;;5083131;28;20227;-52
2023/03/24 02:26:51;;;;;;;2.57;2.23;;;;;;;;;;5077037;28;20230;-53
2023/03/24 02:29:33;;;;;;;3.43;2.03;;;;;;;;;;5027464;28;20243;-52
2023/03/24 02:32:18;;;;;;;2.60;2.40;;;;;;;;;;5079638;28;20242;-50
2023/03/24 02:34:59;;;;;;;2.43;2.23;;;;;;;;;;5085780;28;20244;-51
2023/03/24 02:37:47;;;;;;;2.20;2.00;;;;;;;;;;5075072;28;20222;-52
2023/03/24 02:40:26;;;;;;;2.85;2.55;;;;;;;;;;5039627;28;20246;-51
2023/03/24 02:43:06;;;;;;;3.17;2.37;;;;;;;;;;5059788;28;20235;-52
2023/03/24 02:45:36;;;;;;;2.47;2.27;;;;;;;;;;5066892;28;20230;-52
2023/03/24 02:48:20;;;;;;;2.43;2.23;;;;;;;;;;5066297;28;20316;-52
2023/03/24 02:50:50;;;;;;;2.93;2.33;;;;;;;;;;5080939;28;20769;-52
2023/03/24 02:53:20;;;;;;;3.00;2.33;;;;;;;;;;5059047;28;20680;-52
2023/03/24 02:55:52;;;;;;;4.50;2.80;;;;;;;;;;5064332;28;20226;-52
2023/03/24 02:58:22;;;;;;;3.07;2.80;;;;;;;;;;5072055;28;20681;-52
2023/03/24 03:00:50;;;;;;;2.80;2.60;;;;;;;;;;5068822;28;20240;-52
2023/03/24 03:03:21;;;;;;;3.10;2.90;;;;;;;;;;5081280;28;20315;-51
2023/03/24 03:05:50;;;;;;;3.23;2.67;;;;;;;;;;5058430;28;20784;-51
2023/03/24 03:08:19;;;;;;;2.63;2.43;;;;;;;;;;5065190;28;20733;-53
2023/03/24 03:10:48;;;;;;;2.83;2.63;;;;;;;;;;5068271;28;20928;-52
2023/03/24 03:13:19;;;;;;;3.47;2.60;;;;;;;;;;5070829;28;20235;-52
2023/03/24 03:15:48;;;;;;;2.60;2.40;;;;;;;;;;5056968;28;25858;-53
2023/03/24 03:18:18;;;;;;;3.67;3.37;;;;;;;;;;5065564;28;20235;-51
2023/03/24 03:20:49;;;;;;;2.60;2.40;;;;;;;;;;5065485;28;20301;-51
2023/03/24 03:23:17;;;;;;;3.57;2.60;;;;;;;;;;5066890;28;20242;-52
2023/03/24 03:25:49;;;;;;;3.03;2.80;;;;;;;;;;5056177;28;20318;-50
2023/03/24 03:28:19;;;;;;;4.33;2.47;;;;;;;;;;5064136;28;20733;-53
2023/03/24 03:30:50;;;;;;;2.67;2.47;;;;;;;;;;5078500;28;20602;-53
2023/03/24 03:33:24;;;;;;;3.50;3.20;;;;;;;;;;5085699;28;20253;-52
2023/03/24 03:35:53;;;;;;;3.47;3.17;;;;;;;;;;5085724;28;20234;-51
2023/03/24 03:38:22;;;;;;;2.63;2.43;;;;;;;;;;5067792;28;20301;-52
2023/03/24 03:40:50;;;;;;;2.67;2.47;;;;;;;;;;5065582;28;20343;-50
2023/03/24 03:43:19;;;;;;;5.03;2.90;;;;;;;;;;5061562;28;20308;-52
2023/03/24 03:45:45;;;;;;;3.07;2.77;;;;;;;;;;5063696;28;20230;-50
2023/03/24 03:48:12;;;;;;;3.00;2.70;;;;;;;;;;5062038;28;20322;-52
2023/03/24 03:50:39;;;;;;;2.77;2.57;;;;;;;;;;5064464;28;20231;-52
2023/03/24 03:53:06;;;;;;;6.37;2.80;;;;;;;;;;5068933;28;20296;-53
2023/03/24 03:55:33;;;;;;;5.00;2.77;;;;;;;;;;5082873;28;20241;-52
2023/03/24 03:58:00;;;;;;;2.87;2.67;;;;;;;;;;5073787;28;20230;-53
2023/03/24 04:00:29;;;;;;;4.30;3.07;;;;;;;;;;5093042;28;20371;-55
2023/03/24 04:03:06;;;;;;;3.43;3.13;;;;;;;;;;5072059;28;20231;-51
2023/03/24 04:05:34;;;;;;;3.50;3.10;;;;;;;;;;5065023;28;20240;-52
2023/03/24 04:08:06;;;;;;;3.00;2.80;;;;;;;;;;5075704;28;20325;-53
2023/03/24 04:10:46;;;;;;;6.00;3.30;;;;;;;;;;5085797;28;20929;-52
2023/03/24 04:13:18;;;;;;;3.17;2.97;;;;;;;;;;5077465;28;20235;-51
2023/03/24 04:15:49;;;;;;;3.80;3.50;;;;;;;;;;5061415;28;20231;-52
2023/03/24 04:18:33;;;;;;;3.53;3.23;;;;;;;;;;5069379;28;20230;-50
2023/03/24 04:21:08;;;;;;;3.50;2.83;;;;;;;;;;5049303;28;20235;-52
2023/03/24 04:23:44;;;;;;;7.07;3.30;;;;;;;;;;5063549;28;20234;-52
2023/03/24 04:26:15;;;;;;;4.13;3.73;;;;;;;;;;5061194;28;20239;-52
2023/03/24 04:28:46;;;;;;;4.53;3.97;;;;;;;;;;5064849;28;20266;-51
2023/03/24 04:31:22;;;;;;;4.77;4.03;;;;;;;;;;5067262;28;20309;-51
2023/03/24 04:33:50;;;;;;;3.60;3.30;;;;;;;;;;5072686;28;20294;-52
2023/03/24 04:36:21;;;;;;;4.43;3.90;;;;;;;;;;5067465;28;20238;-53
2023/03/24 04:38:49;;;;;;;3.90;3.50;;;;;;;;;;5063574;28;20344;-52
2023/03/24 04:41:16;;;;;;;6.30;3.90;;;;;;;;;;5063805;28;20787;-51
2023/03/24 04:43:44;;;;;;;3.90;3.60;;;;;;;;;;5070728;28;20231;-52
2023/03/24 04:46:11;;;;;;;6.37;3.73;;;;;;;;;;5063659;28;20482;-51
2023/03/24 04:48:39;;;;;;;4.20;3.80;;;;;;;;;;5067703;28;20239;-52
2023/03/24 04:51:07;;;;;;;4.70;3.80;;;;;;;;;;5064499;28;20238;-51
2023/03/24 04:53:34;;;;;;;5.60;4.03;;;;;;;;;;5070418;28;20322;-52
2023/03/24 04:56:04;;;;;;;4.93;3.47;;;;;;;;;;5068461;28;20578;-51
2023/03/24 04:58:31;;;;;;;5.77;4.20;;;;;;;;;;5063144;28;20230;-50
2023/03/24 05:00:57;;;;;;;4.97;4.43;;;;;;;;;;5077734;28;20541;-54
2023/03/24 05:03:24;;;;;;;5.57;4.00;;;;;;;;;;5084430;28;20243;-50
2023/03/24 05:05:52;;;;;;;5.97;3.70;;;;;;;;;;5070428;28;20231;-52
2023/03/24 05:08:20;;;;;;;3.53;3.30;;;;;;;;;;5063025;28;20326;-51
2023/03/24 05:10:46;;;;;;;4.20;3.90;;;;;;;;;;5068637;28;20759;-52
2023/03/24 05:13:13;;;;;;;5.37;3.93;;;;;;;;;;5084262;28;20242;-51
2023/03/24 05:15:40;;;;;;;4.03;3.63;;;;;;;;;;5071994;28;20227;-50
2023/03/24 05:18:07;;;;;;;4.03;3.73;;;;;;;;;;5071375;28;21056;-54
2023/03/24 05:20:33;;;;;;;4.00;3.60;;;;;;;;;;5067026;28;20946;-51
2023/03/24 05:23:01;;;;;;;4.87;3.83;;;;;;;;;;5063449;28;20275;-52
2023/03/24 05:25:28;;;;;;;5.73;3.83;;;;;;;;;;5073945;28;20341;-54
2023/03/24 05:27:54;;;;;;;4.10;3.70;;;;;;;;;;5083038;28;20234;-52
2023/03/24 05:30:21;;;;;;;3.90;3.53;;;;;;;;;;5077788;28;20238;-52
2023/03/24 05:32:48;;;;;;;5.07;3.63;;;;;;;;;;5063852;28;20243;-51
2023/03/24 05:35:14;;;;;;;5.17;4.10;;;;;;;;;;5063536;28;20239;-51
2023/03/24 05:37:41;;;;;;;5.37;4.07;;;;;;;;;;5062740;28;20223;-52
2023/03/24 05:40:10;;;;;;;5.13;4.10;;;;;;;;;;5079473;28;20303;-51
2023/03/24 05:42:36;;;;;;;4.50;4.10;;;;;;;;;;5083271;28;20291;-53
2023/03/24 05:45:03;;;;;;;4.63;3.80;;;;;;;;;;5066894;28;20257;-53
2023/03/24 05:47:30;;;;;;;7.17;4.57;;;;;;;;;;5077312;28;20239;-52
2023/03/24 05:49:56;;;;;;;4.00;3.70;;;;;;;;;;5088855;28;20238;-52
2023/03/24 05:52:23;;;;;;;6.73;4.27;;;;;;;;;;5084963;28;20279;-51
2023/03/24 05:54:51;;;;;;;5.03;4.00;;;;;;;;;;5067462;28;20235;-51
2023/03/24 05:57:19;;;;;;;4.83;4.07;;;;;;;;;;5067218;28;20258;-52
2023/03/24 05:59:45;;;;;;;4.63;4.17;;;;;;;;;;5063183;28;20226;-52
2023/03/24 06:02:12;;;;;;;5.97;3.67;;;;;;;;;;5074085;28;20444;-52
2023/03/24 06:04:45;;;;;;;7.30;3.58;;;;;;;;;;5063566;28;20697;-52
2023/03/24 06:07:11;;;;;;;3.60;3.30;;;;;;;;;;5062236;28;20235;-52
2023/03/24 06:09:41;;;;;;;5.77;3.60;;;;;;;;;;5061988;28;20235;-52
2023/03/24 06:12:08;;;;;;;3.90;3.60;;;;;;;;;;5078198;28;20263;-51
2023/03/24 06:14:37;;;;;;;6.32;3.85;;;;;;;;;;5081019;28;20234;-52
2023/03/24 06:17:04;;;;;;;4.05;3.47;;;;;;;;;;5072150;28;20235;-53
2023/03/24 06:19:32;;;;;;;6.23;4.50;;;;;;;;;;5074380;28;20226;-53
2023/03/24 06:22:01;;;;;;;4.20;3.80;;;;;;;;;;5074436;28;20876;-52
2023/03/24 06:24:28;;;;;;;5.40;3.80;;;;;;;;;;5086603;28;20250;-51
2023/03/24 06:26:57;;;;;;;5.35;4.03;;;;;;;;;;5082007;28;20231;-56
2023/03/24 06:29:24;;;;;;;3.87;3.50;;;;;;;;;;5068979;28;20270;-52
2023/03/24 06:31:52;;;;;;;3.97;3.60;;;;;;;;;;5063643;28;20584;-52
2023/03/24 06:34:21;;;;;;;3.53;2.97;;;;;;;;;;5080254;28;20701;-52
2023/03/24 06:36:47;;;;;;;3.43;3.03;;;;;;;;;;5086645;28;20226;-51
2023/03/24 06:39:14;;;;;;;4.43;4.00;;;;;;;;;;5076538;28;20286;-52
2023/03/24 06:41:40;;;;;;;4.37;3.63;;;;;;;;;;5066143;28;20231;-52
2023/03/24 06:44:06;;;;;;;4.05;3.67;;;;;;;;;;5060547;28;20254;-53
2023/03/24 06:46:33;;;;;;;4.07;3.73;;;;;;;;;;5070454;28;20687;-52
2023/03/24 06:49:01;;;;;;;4.77;3.67;;;;;;;;;;5085213;28;20238;-53
2023/03/24 06:51:28;;;;;;;5.07;4.27;;;;;;;;;;5084506;28;20263;-52
2023/03/24 06:53:54;;;;;;;4.30;3.90;;;;;;;;;;5074464;28;20234;-53
2023/03/24 06:56:21;;;;;;;4.33;3.97;;;;;;;;;;5066774;28;20231;-53
2023/03/24 06:58:47;;;;;;;4.23;3.83;;;;;;;;;;5081778;28;20229;-52
2023/03/24 07:01:14;;;;;;;4.57;4.17;;;;;;;;;;5070177;28;20247;-50
2023/03/24 07:03:42;;;;;;;4.23;3.83;;;;;;;;;;5070313;28;20645;-52
2023/03/24 07:06:10;;;;;;;4.47;4.07;;;;;;;;;;5072102;28;20258;-51
2023/03/24 07:08:37;;;;;;;5.30;3.60;;;;;;;;;;5068699;28;20239;-52
2023/03/24 07:11:04;;;;;;;5.68;3.80;;;;;;;;;;5065101;28;20230;-52
2023/03/24 07:13:31;;;;;;;4.53;4.13;;;;;;;;;;5066949;28;20320;-55
2023/03/24 07:15:58;;;;;;;4.60;4.20;;;;;;;;;;5073163;28;20243;-54
2023/03/24 07:18:24;;;;;;;4.45;4.03;;;;;;;;;;5057242;28;20339;-52
2023/03/24 07:20:51;;;;;;;4.67;4.00;;;;;;;;;;5062659;28;20869;-51
2023/03/24 07:23:19;;;;;;;5.07;4.40;;;;;;;;;;5071471;28;20286;-52
2023/03/24 07:25:46;;;;;;;3.45;3.15;;;;;;;;;;5062207;28;20300;-52
2023/03/24 07:28:12;;;;;;;3.92;3.63;;;;;;;;;;5065074;28;20313;-51
2023/03/24 07:30:39;;;;;;;3.72;3.40;;;;;;;;;;5063046;28;20230;-51
2023/03/24 07:33:06;;;;;;;4.00;3.60;;;;;;;;;;5060127;28;20322;-52
2023/03/24 07:35:33;;;;;;;3.53;3.22;;;;;;;;;;5063047;28;20234;-52
2023/03/24 07:38:00;;;;;;;4.18;3.35;;;;;;;;;;5067286;28;20235;-52
2023/03/24 07:40:29;;;;;;;4.75;3.72;;;;;;;;;;5064039;28;20740;-52
2023/03/24 07:42:55;;;;;;;3.58;3.28;;;;;;;;;;5063768;28;20321;-52
2023/03/24 07:45:21;;;;;;;4.13;3.67;;;;;;;;;;5063128;28;20725;-51
2023/03/24 07:47:48;;;;;;;4.05;3.67;;;;;;;;;;5055831;28;20242;-52
2023/03/24 07:50:14;;;;;;;4.07;3.35;;;;;;;;;;5065474;28;20259;-52
2023/03/24 07:52:42;;;;;;;3.70;3.40;;;;;;;;;;5062226;28;20658;-52
2023/03/24 07:55:10;;;;;;;5.72;5.13;;;;;;;;;;5067160;28;20259;-53
2023/03/24 07:57:40;;;;;;;4.10;3.70;;;;;;;;;;5066111;28;20274;-54
2023/03/24 08:00:13;;;;;;;5.63;4.40;;;;;;;;;;5048785;28;20274;-53
2023/03/24 08:02:40;;;;;;;5.20;4.20;;;;;;;;;;5067529;28;20790;-55
2023/03/24 08:05:06;;;;;;;8.20;4.80;;;;;;;;;;5059494;28;20235;-54
2023/03/24 08:07:33;;;;;;;5.90;4.20;;;;;;;;;;5069163;28;20262;-56
2023/03/24 08:09:59;;;;;;;5.53;5.03;;;;;;;;;;5064581;28;20239;-60
2023/03/24 08:12:26;;;;;;;6.73;4.97;;;;;;;;;;5064705;28;20612;-55
2023/03/24 08:14:53;;;;;;;7.83;5.70;;;;;;;;;;5066760;28;20245;-56
2023/03/24 08:17:20;;;;;;;8.13;5.20;;;;;;;;;;5065250;28;20227;-56
2023/03/24 08:19:47;;;;;;;6.30;5.27;;;;;;;;;;5064153;28;20235;-63
2023/03/24 08:22:14;;;;;;;6.37;4.77;;;;;;;;;;5062714;28;20238;-54
2023/03/24 08:24:40;;;;;;;5.80;5.30;;;;;;;;;;5063528;28;20227;-54
2023/03/24 08:27:07;;;;;;;8.33;4.80;;;;;;;;;;5050547;28;20752;-53
2023/03/24 08:29:34;;;;;;;5.18;4.68;;;;;;;;;;5057285;28;20239;-54
2023/03/24 08:32:02;;;;;;;7.27;5.50;;;;;;;;;;5062829;28;20773;-53
2023/03/24 08:34:28;;;;;;;5.43;4.93;;;;;;;;;;5063472;28;20227;-53
2023/03/24 08:36:55;;;;;;;5.33;4.83;;;;;;;;;;5063883;28;20803;-52
2023/03/24 08:39:23;;;;;;;4.80;4.40;;;;;;;;;;5058074;28;20235;-53
2023/03/24 08:41:49;;;;;;;5.28;4.75;;;;;;;;;;5059631;28;20400;-53
2023/03/24 08:44:15;;;;;;;6.80;5.73;;;;;;;;;;5066021;28;20397;-54
2023/03/24 08:46:42;;;;;;;9.07;5.47;;;;;;;;;;5062642;28;20229;-53
2023/03/24 08:49:10;;;;;;;6.25;5.18;;;;;;;;;;5062258;28;20239;-53
2023/03/24 08:51:37;;;;;;;5.00;4.03;;;;;;;;;;5062934;28;20227;-53
2023/03/24 08:54:04;;;;;;;4.90;4.43;;;;;;;;;;5057090;28;20932;-52
2023/03/24 08:56:31;;;;;;;4.40;4.00;;;;;;;;;;5061892;28;20812;-51
2023/03/24 08:58:58;;;;;;;5.07;4.60;;;;;;;;;;5062066;28;20326;-52
2023/03/24 09:01:24;;;;;;;5.25;4.75;;;;;;;;;;5061809;28;20231;-51
2023/03/24 09:03:51;;;;;;;4.53;4.13;;;;;;;;;;5057251;28;20247;-52
2023/03/24 09:06:19;;;;;;;4.93;3.42;;;;;;;;;;5061103;28;20245;-52
2023/03/24 09:08:45;;;;;;;3.85;3.55;;;;;;;;;;5061973;28;20705;-52
2023/03/24 09:11:14;;;;;;;5.10;3.40;;;;;;;;;;5062144;28;20314;-51
2023/03/24 09:13:41;;;;;;;4.40;4.00;;;;;;;;;;5060186;28;20314;-52
2023/03/24 09:16:07;;;;;;;3.47;3.15;;;;;;;;;;5063736;28;20300;-51
2023/03/24 09:18:34;;;;;;;4.07;3.67;;;;;;;;;;5059122;28;20333;-52
2023/03/24 09:21:01;;;;;;;4.20;3.80;;;;;;;;;;5065096;28;20235;-53
2023/03/24 09:23:30;;;;;;;4.13;3.72;;;;;;;;;;5064417;28;20235;-53
2023/03/24 09:25:57;;;;;;;4.25;3.88;;;;;;;;;;5065518;28;20327;-51
2023/03/24 09:28:23;;;;;;;3.95;3.50;;;;;;;;;;5063894;28;20881;-51
2023/03/24 09:30:50;;;;;;;7.05;4.22;;;;;;;;;;5068188;28;20227;-51
2023/03/24 09:33:17;;;;;;;3.67;3.38;;;;;;;;;;5070152;28;20234;-52
2023/03/24 09:35:43;;;;;;;4.53;3.70;;;;;;;;;;5068823;28;20227;-52
2023/03/24 09:38:11;;;;;;;7.00;3.90;;;;;;;;;;5066816;28;20231;-52
2023/03/24 09:40:39;;;;;;;4.75;4.35;;;;;;;;;;5061941;28;20896;-51
2023/03/24 09:43:08;;;;;;;5.47;3.60;;;;;;;;;;5057380;28;20247;-52
2023/03/24 09:45:37;;;;;;;3.85;3.20;;;;;;;;;;5067167;28;20223;-51
2023/03/24 09:48:07;;;;;;;3.65;3.25;;;;;;;;;;5067493;28;20231;-51
2023/03/24 09:50:34;;;;;;;3.83;3.45;;;;;;;;;;5067135;28;20231;-51
2023/03/24 09:53:04;;;;;;;2.88;2.67;;;;;;;;;;5066474;28;20245;-53
2023/03/24 09:55:31;;;;;;;4.03;2.85;;;;;;;;;;5064866;28;20319;-52
2023/03/24 09:58:02;;;;;;;4.55;3.40;;;;;;;;;;5066850;28;20231;-53
2023/03/24 10:00:30;;;;;;;5.28;3.42;;;;;;;;;;5062917;28;20785;-52
2023/03/24 10:02:59;;;;;;;3.67;3.08;;;;;;;;;;5066092;28;20249;-52
2023/03/24 10:05:30;;;;;;;3.78;3.20;;;;;;;;;;5072446;28;20227;-52
2023/03/24 10:07:59;;;;;;;3.42;3.13;;;;;;;;;;5065870;28;20238;-52
2023/03/24 10:10:29;;;;;;;3.40;3.10;;;;;;;;;;5073082;28;20238;-52
2023/03/24 10:12:58;;;;;;;3.58;2.92;;;;;;;;;;5074228;28;20236;-51
2023/03/24 10:15:30;;;;;;;3.42;2.83;;;;;;;;;;5070186;28;20231;-51
2023/03/24 10:17:59;;;;;;;2.50;2.13;;;;;;;;;;5063093;28;20583;-51
2023/03/24 10:20:30;;;;;;;2.38;2.17;;;;;;;;;;5065767;28;20251;-52
2023/03/24 10:23:00;;;;;;;2.58;2.30;;;;;;;;;;5065439;28;20239;-53
2023/03/24 10:25:34;;;;;;;2.92;2.67;;;;;;;;;;5068719;28;20281;-52
2023/03/24 10:28:02;;;;;;;3.42;2.47;;;;;;;;;;5068943;28;20228;-52
2023/03/24 10:30:31;;;;;;;3.60;3.28;;;;;;;;;;5064416;28;20231;-52
2023/03/24 10:32:58;;;;;;;4.13;3.15;;;;;;;;;;5062495;28;20607;-52
2023/03/24 10:35:25;;;;;;;3.15;2.85;;;;;;;;;;5065862;28;20227;-51
2023/03/24 10:37:52;;;;;;;2.85;2.40;;;;;;;;;;5063274;28;20308;-52
2023/03/24 10:40:21;;;;;;;3.22;2.92;;;;;;;;;;5069466;28;20735;-53
2023/03/24 10:42:48;;;;;;;3.90;2.80;;;;;;;;;;5066198;28;20231;-50
2023/03/24 10:45:20;;;;;;;2.60;2.40;;;;;;;;;;5071743;28;20237;-53
2023/03/24 10:47:48;;;;;;;3.55;3.25;;;;;;;;;;5060323;28;20322;-51
2023/03/24 10:50:15;;;;;;;3.13;2.65;;;;;;;;;;5064740;28;20239;-52
2023/03/24 10:52:42;;;;;;;3.05;2.85;;;;;;;;;;5081971;28;20254;-51
2023/03/24 10:55:15;;;;;;;3.97;3.13;;;;;;;;;;5075894;28;20239;-52
2023/03/24 10:57:42;;;;;;;3.00;2.70;;;;;;;;;;5071035;28;20255;-51
2023/03/24 11:00:17;;;;;;;2.45;2.25;;;;;;;;;;5065405;28;20235;-52
2023/03/24 11:02:43;;;;;;;3.53;2.28;;;;;;;;;;5061492;28;20238;-52
2023/03/24 11:05:15;;;;;;;3.47;2.65;;;;;;;;;;5066841;28;20227;-51
2023/03/24 11:07:42;;;;;;;3.90;2.75;;;;;;;;;;5063772;28;20811;-51
2023/03/24 11:10:15;;;;;;;3.33;3.03;;;;;;;;;;5063288;28;20239;-52
2023/03/24 11:12:42;;;;;;;2.25;2.05;;;;;;;;;;5066646;28;20339;-52
2023/03/24 11:15:16;;;;;;;3.63;2.83;;;;;;;;;;5072001;28;20645;-52
2023/03/24 11:17:43;;;;;;;3.38;2.72;;;;;;;;;;5068627;28;20321;-51
2023/03/24 11:20:17;;;;;;;6.32;2.35;;;;;;;;;;5066788;28;20327;-52
2023/03/24 11:22:48;;;;;;;2.95;2.50;;;;;;;;;;5061667;28;20227;-52
2023/03/24 11:25:15;;;;;;;2.95;2.65;;;;;;;;;;5060436;28;20250;-52
2023/03/24 11:27:41;;;;;;;2.75;2.17;;;;;;;;;;5060215;28;20230;-51
2023/03/24 11:30:12;;;;;;;5.60;2.70;;;;;;;;;;5060102;28;20238;-60
2023/03/24 11:32:38;;;;;;;4.97;2.53;;;;;;;;;;5061653;28;20239;-52
2023/03/24 11:35:07;;;;;;;3.08;2.53;;;;;;;;;;5067443;28;20608;-52
2023/03/24 11:37:36;;;;;;;3.13;2.63;;;;;;;;;;5069248;28;20243;-52
2023/03/24 11:40:15;;;;;;;3.90;2.67;;;;;;;;;;5070374;28;20290;-51
2023/03/24 11:42:43;;;;;;;3.50;2.88;;;;;;;;;;5060377;28;20255;-51
2023/03/24 11:45:20;;;;;;;3.80;2.80;;;;;;;;;;5066525;28;20242;-51
2023/03/24 11:47:47;;;;;;;7.13;2.90;;;;;;;;;;5058598;28;20223;-52
2023/03/24 11:50:17;;;;;;;2.50;2.30;;;;;;;;;;5062156;28;20239;-52
2023/03/24 11:52:47;;;;;;;2.75;2.50;;;;;;;;;;5065879;28;20665;-51
2023/03/24 11:55:15;;;;;;;4.50;3.05;;;;;;;;;;5064473;28;20669;-51
2023/03/24 11:57:47;;;;;;;3.25;2.30;;;;;;;;;;5062419;28;20231;-51
2023/03/24 12:00:19;;;;;;;2.72;2.53;;;;;;;;;;5066866;28;20243;-53
2023/03/24 12:02:53;;;;;;;2.20;2.10;;;;;;;;;;5056731;28;20235;-52
2023/03/24 12:05:29;;;;;;;2.20;2.10;;;;;;;;;;5058693;28;20232;-52
2023/03/24 12:08:08;;;;;;;2.60;2.40;;;;;;;;;;5065131;28;20223;-52
2023/03/24 12:10:41;;;;;;;2.25;2.10;;;;;;;;;;5064051;28;20231;-51
2023/03/24 12:13:09;;;;;;;3.00;2.33;;;;;;;;;;5063355;28;20334;-53
2023/03/24 12:15:39;;;;;;;2.60;2.40;;;;;;;;;;5074451;28;20318;-52
2023/03/24 12:18:33;;;;;;;2.40;2.20;;;;;;;;;;5069506;28;20617;-50
2023/03/24 12:21:03;;;;;;;2.33;2.13;;;;;;;;;;5064526;28;20230;-51
2023/03/24 12:23:36;;;;;;;3.10;2.90;;;;;;;;;;5065377;28;20763;-51
2023/03/24 12:26:15;;;;;;;4.68;3.95;;;;;;;;;;5079027;28;20231;-52
2023/03/24 12:28:47;;;;;;;2.85;2.22;;;;;;;;;;5066852;28;20234;-52
2023/03/24 12:31:27;;;;;;;3.00;2.67;;;;;;;;;;5064696;28;20231;-50
2023/03/24 12:33:58;;;;;;;2.03;1.92;;;;;;;;;;5062531;28;20607;-51
2023/03/24 12:36:33;;;;;;;3.40;2.13;;;;;;;;;;5071818;28;20284;-52
2023/03/24 12:39:05;;;;;;;2.28;2.13;;;;;;;;;;5066618;28;20298;-51
2023/03/24 12:41:46;;;;;;;2.05;1.95;;;;;;;;;;5070385;28;20235;-52
2023/03/24 12:44:22;;;;;;;2.53;2.33;;;;;;;;;;5064945;28;20239;-51
2023/03/24 12:46:54;;;;;;;2.00;1.90;;;;;;;;;;5064427;28;20230;-52
2023/03/24 12:49:33;;;;;;;2.13;1.92;;;;;;;;;;5060285;28;20231;-51
2023/03/24 12:52:08;;;;;;;2.63;2.40;;;;;;;;;;5060330;28;20237;-54
2023/03/24 12:54:39;;;;;;;2.78;2.53;;;;;;;;;;5063403;28;20234;-52
2023/03/24 12:57:07;;;;;;;1.80;1.60;;;;;;;;;;5061871;28;20323;-53
2023/03/24 12:59:36;;;;;;;2.00;1.90;;;;;;;;;;5064954;28;20226;-52
2023/03/24 13:02:04;;;;;;;2.15;2.05;;;;;;;;;;5072229;28;20227;-52
2023/03/24 13:04:33;;;;;;;3.00;1.90;;;;;;;;;;5068476;28;20287;-52
2023/03/24 13:07:01;;;;;;;4.97;2.17;;;;;;;;;;5065374;28;20313;-53
2023/03/24 13:09:34;;;;;;;2.13;2.00;;;;;;;;;;5064476;28;20658;-52
2023/03/24 13:12:04;;;;;;;2.30;2.10;;;;;;;;;;5063230;28;20239;-54
2023/03/24 13:14:31;;;;;;;1.80;1.70;;;;;;;;;;5065426;28;20238;-52
2023/03/24 13:17:02;;;;;;;2.13;1.92;;;;;;;;;;5068623;28;20231;-53
2023/03/24 13:19:29;;;;;;;2.00;1.80;;;;;;;;;;5060082;28;20281;-52
2023/03/24 13:21:56;;;;;;;1.52;1.30;;;;;;;;;;5068114;28;20231;-52
2023/03/24 13:24:24;;;;;;;1.40;1.30;;;;;;;;;;5073229;28;20237;-51
2023/03/24 13:26:55;;;;;;;2.70;1.45;;;;;;;;;;5065323;28;20235;-51
2023/03/24 13:29:32;;;;;;;1.50;1.10;;;;;;;;;;5066552;28;20240;-51
2023/03/24 13:32:00;;;;;;;3.47;1.60;;;;;;;;;;5062217;28;20634;-52
2023/03/24 13:34:28;;;;;;;1.65;1.20;;;;;;;;;;5069575;28;20364;-51
2023/03/24 13:36:57;;;;;;;1.73;1.40;;;;;;;;;;5063483;28;20236;-51
2023/03/24 13:39:25;;;;;;;2.08;1.60;;;;;;;;;;5064987;28;20250;-52
2023/03/24 13:41:52;;;;;;;1.90;1.33;;;;;;;;;;5063181;28;20231;-53
2023/03/24 13:44:20;;;;;;;4.68;1.75;;;;;;;;;;5068387;28;20308;-50
2023/03/24 13:47:03;;;;;;;2.40;1.73;;;;;;;;;;5062981;28;20795;-51
2023/03/24 13:49:30;;;;;;;1.52;1.40;;;;;;;;;;5062123;28;20247;-52
2023/03/24 13:51:56;;;;;;;2.10;1.60;;;;;;;;;;5062021;28;20235;-51
2023/03/24 13:54:25;;;;;;;1.73;1.30;;;;;;;;;;5059309;28;20337;-52
2023/03/24 13:56:53;;;;;;;1.00;1.00;;;;;;;;;;5064069;28;20246;-53
2023/03/24 13:59:30;;;;;;;1.50;1.40;;;;;;;;;;5065753;28;20250;-51
2023/03/24 14:02:17;;;;;;;1.70;1.17;;;;;;;;;;5062636;28;20322;-50
2023/03/24 14:04:44;;;;;;;1.33;1.23;;;;;;;;;;5064034;28;20238;-52
2023/03/24 14:07:25;;;;;;;1.83;1.35;;;;;;;;;;5066615;28;20240;-52
2023/03/24 14:09:57;;;;;;;3.40;1.70;;;;;;;;;;5060851;28;20356;-51
2023/03/24 14:12:24;;;;;;;2.70;2.17;;;;;;;;;;5069758;28;20315;-52
2023/03/24 14:15:11;;;;;;;6.07;2.40;;;;;;;;;;5060655;28;20237;-51
2023/03/24 14:17:42;;;;;;;5.63;2.60;;;;;;;;;;5076025;28;20318;-53
2023/03/24 14:20:13;;;;;;;3.13;2.50;;;;;;;;;;5068499;28;20231;-53
2023/03/24 14:22:41;;;;;;;3.83;2.25;;;;;;;;;;5078818;28;20228;-51
2023/03/24 14:25:20;;;;;;;3.72;3.25;;;;;;;;;;5075677;28;20241;-52
2023/03/24 14:27:47;;;;;;;3.42;3.13;;;;;;;;;;5069693;28;20231;-51
2023/03/24 14:30:18;;;;;;;5.07;4.63;;;;;;;;;;5068920;28;20269;-52
2023/03/24 14:32:47;;;;;;;2.40;1.98;;;;;;;;;;5068838;28;20231;-52
2023/03/24 14:35:24;;;;;;;8.52;2.20;;;;;;;;;;5068492;28;20627;-51
2023/03/24 14:37:52;;;;;;;3.70;2.25;;;;;;;;;;5065447;28;20235;-54
2023/03/24 14:40:24;;;;;;;2.20;1.70;;;;;;;;;;5071119;28;20235;-51
2023/03/24 14:42:55;;;;;;;3.08;2.17;;;;;;;;;;5076775;28;20339;-52
2023/03/24 14:45:40;;;;;;;2.13;2.03;;;;;;;;;;5077373;28;20732;-52
2023/03/24 14:48:19;;;;;;;4.32;1.80;;;;;;;;;;5070647;28;20235;-50
2023/03/24 14:50:46;;;;;;;6.22;3.15;;;;;;;;;;5066336;28;20880;-50
2023/03/24 14:53:17;;;;;;;2.72;2.20;;;;;;;;;;5074028;28;20243;-51
2023/03/24 14:55:44;;;;;;;5.30;3.67;;;;;;;;;;5064869;28;20786;-52